sensor_id;sensor_type;location;lat;lon;timestamp;pressure;altitude;pressure_sealevel;temperature;humidity
58973;BME280;44750;52.040;7.472;2023-02-21T00:03:17;101432.91;;;9.03;0.00
58973;BME280;44750;52.040;7.472;2023-02-21T00:08:18;101417.94;;;8.99;0.00
58973;BME280;44750;52.040;7.472;2023-02-21T00:13:18;101415.22;;;8.99;0.00
58973;BME280;44750;52.040;7.472;2023-02-21T00:18:18;101407.41;;;8.96;0.00
58973;BME280;44750;52.040;7.472;2023-02-21T00:23:18;101397.84;;;8.92;0.00
58973;BME280;44750;52.040;7.472;2023-02-21T00:28:19;101417.66;;;9.02;0.00
58973;BME280;44750;52.040;7.472;2023-02-21T00:33:19;101414.03;;;8.92;0.00
58973;BME280;44750;52.040;7.472;2023-02-21T00:38:19;101415.94;;;9.01;0.00
58973;BME280;44750;52.040;7.472;2023-02-21T00:43:26;101422.59;;;9.08;0.00
58973;BME280;44750;52.040;7.472;2023-02-21T00:48:27;101400.88;;;8.98;0.00
58973;BME280;44750;52.040;7.472;2023-02-21T00:53:27;101403.47;;;9.00;0.00
58973;BME280;44750;52.040;7.472;2023-02-21T00:58:27;101414.97;;;9.02;0.00
58973;BME280;44750;52.040;7.472;2023-02-21T01:03:28;101418.16;;;9.07;0.00
58973;BME280;44750;52.040;7.472;2023-02-21T01:08:28;101407.84;;;9.01;0.00
58973;BME280;44750;52.040;7.472;2023-02-21T01:13:28;101406.16;;;9.00;0.00
58973;BME280;44750;52.040;7.472;2023-02-21T01:18:29;101404.44;;;8.99;0.00
58973;BME280;44750;52.040;7.472;2023-02-21T01:23:30;101410.81;;;8.98;0.00
58973;BME280;44750;52.040;7.472;2023-02-21T01:28:30;101400.28;;;8.95;0.00
58973;BME280;44750;52.040;7.472;2023-02-21T01:33:39;101417.81;;;9.00;0.00
58973;BME280;44750;52.040;7.472;2023-02-21T01:38:40;101430.69;;;9.08;0.00
58973;BME280;44750;52.040;7.472;2023-02-21T01:44:04;101429.22;;;9.04;0.00
58973;BME280;44750;52.040;7.472;2023-02-21T01:49:09;101417.19;;;8.97;0.00
58973;BME280;44750;52.040;7.472;2023-02-21T01:54:11;101425.91;;;9.00;0.00
58973;BME280;44750;52.040;7.472;2023-02-21T01:59:12;101410.69;;;8.99;0.00
58973;BME280;44750;52.040;7.472;2023-02-21T02:04:13;101401.50;;;8.91;0.00
58973;BME280;44750;52.040;7.472;2023-02-21T02:09:17;101397.84;;;8.92;0.00
58973;BME280;44750;52.040;7.472;2023-02-21T02:25:21;101411.78;;;8.97;0.00
58973;BME280;44750;52.040;7.472;2023-02-21T02:30:40;101411.56;;;9.00;0.00
58973;BME280;44750;52.040;7.472;2023-02-21T02:35:53;101426.03;;;8.99;0.00
58973;BME280;44750;52.040;7.472;2023-02-21T02:41:06;101450.56;;;9.07;0.00
58973;BME280;44750;52.040;7.472;2023-02-21T02:46:16;101447.16;;;9.05;0.00
58973;BME280;44750;52.040;7.472;2023-02-21T02:51:19;101449.72;;;9.07;0.00
58973;BME280;44750;52.040;7.472;2023-02-21T02:56:20;101435.47;;;9.04;0.00
58973;BME280;44750;52.040;7.472;2023-02-21T03:12:23;101445.44;;;9.04;0.00
58973;BME280;44750;52.040;7.472;2023-02-21T03:17:35;101461.38;;;9.07;0.00
58973;BME280;44750;52.040;7.472;2023-02-21T03:22:37;101448.63;;;8.98;0.00
58973;BME280;44750;52.040;7.472;2023-02-21T03:27:38;101460.75;;;9.03;0.00
58973;BME280;44750;52.040;7.472;2023-02-21T03:32:42;101461.97;;;8.99;0.00
58973;BME280;44750;52.040;7.472;2023-02-21T03:37:46;101473.91;;;9.08;0.00
58973;BME280;44750;52.040;7.472;2023-02-21T03:42:47;101479.78;;;9.02;0.00
58973;BME280;44750;52.040;7.472;2023-02-21T03:47:48;101494.41;;;9.11;0.00
58973;BME280;44750;52.040;7.472;2023-02-21T03:52:48;101499.94;;;9.09;0.00
58973;BME280;44750;52.040;7.472;2023-02-21T03:57:48;101504.31;;;9.10;0.00
58973;BME280;44750;52.040;7.472;2023-02-21T04:02:48;101508.03;;;9.09;0.00
58973;BME280;44750;52.040;7.472;2023-02-21T04:07:49;101500.41;;;9.03;0.00
58973;BME280;44750;52.040;7.472;2023-02-21T04:12:49;101514.03;;;9.13;0.00
58973;BME280;44750;52.040;7.472;2023-02-21T04:17:49;101516.84;;;9.11;0.00
58973;BME280;44750;52.040;7.472;2023-02-21T04:22:49;101510.88;;;9.08;0.00
58973;BME280;44750;52.040;7.472;2023-02-21T04:27:50;101523.13;;;9.12;0.00
58973;BME280;44750;52.040;7.472;2023-02-21T04:32:50;101514.41;;;9.08;0.00
58973;BME280;44750;52.040;7.472;2023-02-21T04:37:50;101503.59;;;8.97;0.00
58973;BME280;44750;52.040;7.472;2023-02-21T04:42:50;101517.97;;;9.09;0.00
58973;BME280;44750;52.040;7.472;2023-02-21T04:47:50;101521.16;;;9.02;0.00
58973;BME280;44750;52.040;7.472;2023-02-21T04:52:51;101534.66;;;9.14;0.00
58973;BME280;44750;52.040;7.472;2023-02-21T04:57:51;101515.66;;;9.04;0.00
58973;BME280;44750;52.040;7.472;2023-02-21T05:02:51;101518.47;;;9.02;0.00
58973;BME280;44750;52.040;7.472;2023-02-21T05:07:51;101509.88;;;8.97;0.00
58973;BME280;44750;52.040;7.472;2023-02-21T05:12:52;101510.97;;;8.95;0.00
58973;BME280;44750;52.040;7.472;2023-02-21T05:17:52;101505.84;;;8.92;0.00
58973;BME280;44750;52.040;7.472;2023-02-21T05:22:52;101514.91;;;8.91;0.00
58973;BME280;44750;52.040;7.472;2023-02-21T05:27:52;101522.50;;;8.85;0.00
58973;BME280;44750;52.040;7.472;2023-02-21T05:32:53;101518.84;;;8.86;0.00
58973;BME280;44750;52.040;7.472;2023-02-21T05:37:53;101528.53;;;8.89;0.00
58973;BME280;44750;52.040;7.472;2023-02-21T05:42:53;101534.16;;;8.86;0.00
58973;BME280;44750;52.040;7.472;2023-02-21T05:47:53;101517.00;;;8.76;0.00
58973;BME280;44750;52.040;7.472;2023-02-21T05:52:55;101532.31;;;8.75;0.00
58973;BME280;44750;52.040;7.472;2023-02-21T05:57:55;101547.53;;;8.76;0.00
58973;BME280;44750;52.040;7.472;2023-02-21T06:02:56;101564.97;;;8.83;0.00
58973;BME280;44750;52.040;7.472;2023-02-21T06:07:58;101564.25;;;8.81;0.00
58973;BME280;44750;52.040;7.472;2023-02-21T06:12:58;101569.00;;;8.78;0.00
58973;BME280;44750;52.040;7.472;2023-02-21T06:17:58;101585.06;;;8.79;0.00
58973;BME280;44750;52.040;7.472;2023-02-21T06:22:58;101586.94;;;8.79;0.00
58973;BME280;44750;52.040;7.472;2023-02-21T06:27:59;101582.75;;;8.75;0.00
58973;BME280;44750;52.040;7.472;2023-02-21T06:32:59;101604.94;;;8.78;0.00
58973;BME280;44750;52.040;7.472;2023-02-21T06:37:59;101617.34;;;8.81;0.00
58973;BME280;44750;52.040;7.472;2023-02-21T06:42:59;101611.34;;;8.77;0.00
58973;BME280;44750;52.040;7.472;2023-02-21T06:48:00;101639.72;;;8.83;0.00
58973;BME280;44750;52.040;7.472;2023-02-21T06:53:00;101623.47;;;8.72;0.00
58973;BME280;44750;52.040;7.472;2023-02-21T06:58:00;101630.72;;;8.71;0.00
58973;BME280;44750;52.040;7.472;2023-02-21T07:03:00;101631.09;;;8.66;0.00
58973;BME280;44750;52.040;7.472;2023-02-21T07:08:01;101656.72;;;8.72;0.00
58973;BME280;44750;52.040;7.472;2023-02-21T07:13:01;101680.19;;;8.83;0.00
58973;BME280;44750;52.040;7.472;2023-02-21T07:18:01;101661.38;;;8.70;0.00
58973;BME280;44750;52.040;7.472;2023-02-21T07:23:02;101682.84;;;8.72;0.00
58973;BME280;44750;52.040;7.472;2023-02-21T07:28:02;101680.91;;;8.74;0.00
58973;BME280;44750;52.040;7.472;2023-02-21T07:33:02;101683.22;;;8.67;0.00
58973;BME280;44750;52.040;7.472;2023-02-21T07:38:02;101699.16;;;8.70;0.00
58973;BME280;44750;52.040;7.472;2023-02-21T07:43:03;101729.91;;;8.80;0.00
58973;BME280;44750;52.040;7.472;2023-02-21T07:48:03;101722.25;;;8.74;0.00
58973;BME280;44750;52.040;7.472;2023-02-21T07:53:03;101730.59;;;8.71;0.00
58973;BME280;44750;52.040;7.472;2023-02-21T07:58:04;101760.56;;;8.79;0.00
58973;BME280;44750;52.040;7.472;2023-02-21T08:03:04;101762.75;;;8.74;0.00
58973;BME280;44750;52.040;7.472;2023-02-21T08:08:08;101760.16;;;8.73;0.00
58973;BME280;44750;52.040;7.472;2023-02-21T08:13:09;101748.13;;;8.65;0.00
58973;BME280;44750;52.040;7.472;2023-02-21T08:18:17;101764.63;;;8.61;0.00
58973;BME280;44750;52.040;7.472;2023-02-21T08:23:18;101782.25;;;8.66;0.00
58973;BME280;44750;52.040;7.472;2023-02-21T08:28:18;101792.38;;;8.63;0.00
58973;BME280;44750;52.040;7.472;2023-02-21T08:33:19;101800.38;;;8.64;0.00
58973;BME280;44750;52.040;7.472;2023-02-21T08:38:19;101813.75;;;8.66;0.00
58973;BME280;44750;52.040;7.472;2023-02-21T08:43:20;101809.66;;;8.60;0.00
58973;BME280;44750;52.040;7.472;2023-02-21T08:48:20;101829.94;;;8.66;0.00
58973;BME280;44750;52.040;7.472;2023-02-21T08:53:20;101844.19;;;8.68;0.00
58973;BME280;44750;52.040;7.472;2023-02-21T08:58:20;101841.72;;;8.65;0.00
58973;BME280;44750;52.040;7.472;2023-02-21T09:03:21;101856.72;;;8.69;0.00
58973;BME280;44750;52.040;7.472;2023-02-21T09:08:21;101867.94;;;8.76;0.00
58973;BME280;44750;52.040;7.472;2023-02-21T09:13:21;101865.31;;;8.74;0.00
58973;BME280;44750;52.040;7.472;2023-02-21T09:18:22;101872.47;;;8.75;0.00
58973;BME280;44750;52.040;7.472;2023-02-21T09:23:24;101879.16;;;8.82;0.00
58973;BME280;44750;52.040;7.472;2023-02-21T09:28:25;101877.41;;;8.81;0.00
58973;BME280;44750;52.040;7.472;2023-02-21T09:33:25;101883.56;;;8.83;0.00
58973;BME280;44750;52.040;7.472;2023-02-21T09:38:25;101886.78;;;8.89;0.00
58973;BME280;44750;52.040;7.472;2023-02-21T09:43:37;101886.03;;;8.86;0.00
58973;BME280;44750;52.040;7.472;2023-02-21T09:48:40;101874.59;;;8.83;0.00
58973;BME280;44750;52.040;7.472;2023-02-21T09:53:43;101899.31;;;8.90;0.00
58973;BME280;44750;52.040;7.472;2023-02-21T09:58:45;101897.47;;;8.90;0.00
58973;BME280;44750;52.040;7.472;2023-02-21T10:04:03;101881.84;;;8.82;0.00
58973;BME280;44750;52.040;7.472;2023-02-21T10:15:01;101905.13;;;8.96;0.00
58973;BME280;44750;52.040;7.472;2023-02-21T10:20:05;101886.25;;;8.83;0.00
58973;BME280;44750;52.040;7.472;2023-02-21T10:25:30;101929.06;;;9.01;0.00
58973;BME280;44750;52.040;7.472;2023-02-21T10:30:33;101919.47;;;8.97;0.00
58973;BME280;44750;52.040;7.472;2023-02-21T10:35:38;101908.19;;;8.92;0.00
58973;BME280;44750;52.040;7.472;2023-02-21T10:40:41;101942.91;;;9.09;0.00
58973;BME280;44750;52.040;7.472;2023-02-21T11:01:22;101943.19;;;9.17;0.00
58973;BME280;44750;52.040;7.472;2023-02-21T11:06:43;101917.59;;;9.10;0.00
58973;BME280;44750;52.040;7.472;2023-02-21T11:11:45;101918.13;;;9.15;0.00
58973;BME280;44750;52.040;7.472;2023-02-21T11:17:24;101929.69;;;9.17;0.00
58973;BME280;44750;52.040;7.472;2023-02-21T11:27:27;101913.72;;;9.14;0.00
58973;BME280;44750;52.040;7.472;2023-02-21T11:32:32;101908.91;;;9.18;0.00
58973;BME280;44750;52.040;7.472;2023-02-21T11:37:46;101910.09;;;9.27;0.00
58973;BME280;44750;52.040;7.472;2023-02-21T11:42:47;101870.94;;;9.08;0.00
58973;BME280;44750;52.040;7.472;2023-02-21T11:47:55;101876.97;;;9.12;0.00
58973;BME280;44750;52.040;7.472;2023-02-21T11:53:05;101860.97;;;9.09;0.00
58973;BME280;44750;52.040;7.472;2023-02-21T11:58:22;101836.63;;;8.97;0.00
58973;BME280;44750;52.040;7.472;2023-02-21T12:03:39;101850.94;;;9.11;0.00
58973;BME280;44750;52.040;7.472;2023-02-21T12:14:29;101821.16;;;8.99;0.00
58973;BME280;44750;52.040;7.472;2023-02-21T12:46:08;101754.53;;;9.11;0.00
58973;BME280;44750;52.040;7.472;2023-02-21T12:51:17;101734.03;;;9.09;0.00
58973;BME280;44750;52.040;7.472;2023-02-21T13:02:36;101742.81;;;9.35;0.00
58973;BME280;44750;52.040;7.472;2023-02-21T13:08:50;101717.41;;;9.37;0.00
58973;BME280;44750;52.040;7.472;2023-02-21T13:13:27;101691.50;;;9.35;0.00
58973;BME280;44750;52.040;7.472;2023-02-21T13:18:33;101656.59;;;9.32;0.00
58973;BME280;44750;52.040;7.472;2023-02-21T13:23:54;101642.22;;;9.31;0.00
58973;BME280;44750;52.040;7.472;2023-02-21T13:28:58;101634.47;;;9.38;0.00
58973;BME280;44750;52.040;7.472;2023-02-21T13:34:00;101615.09;;;9.44;0.00
58973;BME280;44750;52.040;7.472;2023-02-21T13:39:21;101598.13;;;9.53;0.00
58973;BME280;44750;52.040;7.472;2023-02-21T13:44:31;101562.00;;;9.54;0.00
58973;BME280;44750;52.040;7.472;2023-02-21T14:05:20;101500.97;;;9.52;0.00
58973;BME280;44750;52.040;7.472;2023-02-21T14:15:44;101454.44;;;9.37;0.00
58973;BME280;44750;52.040;7.472;2023-02-21T14:20:48;101397.28;;;9.09;0.00
58973;BME280;44750;52.040;7.472;2023-02-21T14:25:57;101452.69;;;9.47;0.00
58973;BME280;44750;52.040;7.472;2023-02-21T14:31:01;101437.84;;;9.42;0.00
58973;BME280;44750;52.040;7.472;2023-02-21T14:36:07;101425.66;;;9.47;0.00
58973;BME280;44750;52.040;7.472;2023-02-21T14:52:14;101389.03;;;9.54;0.00
58973;BME280;44750;52.040;7.472;2023-02-21T14:57:38;101389.09;;;9.64;0.00
58973;BME280;44750;52.040;7.472;2023-02-21T15:03:15;101361.88;;;9.56;0.00
58973;BME280;44750;52.040;7.472;2023-02-21T15:08:23;101376.31;;;9.66;0.00
58973;BME280;44750;52.040;7.472;2023-02-21T15:13:27;101344.53;;;9.59;0.00
58973;BME280;44750;52.040;7.472;2023-02-21T15:18:36;101325.28;;;9.52;0.00
58973;BME280;44750;52.040;7.472;2023-02-21T15:23:42;101320.34;;;9.57;0.00
58973;BME280;44750;52.040;7.472;2023-02-21T15:28:42;101318.22;;;9.61;0.00
58973;BME280;44750;52.040;7.472;2023-02-21T15:33:43;101307.41;;;9.61;0.00
58973;BME280;44750;52.040;7.472;2023-02-21T15:39:09;101300.63;;;9.66;0.00
58973;BME280;44750;52.040;7.472;2023-02-21T15:44:24;101286.97;;;9.68;0.00
58973;BME280;44750;52.040;7.472;2023-02-21T15:49:29;101255.59;;;9.56;0.00
58973;BME280;44750;52.040;7.472;2023-02-21T15:54:33;101251.91;;;9.57;0.00
58973;BME280;44750;52.040;7.472;2023-02-21T15:59:34;101266.63;;;9.64;0.00
58973;BME280;44750;52.040;7.472;2023-02-21T16:04:39;101258.75;;;9.61;0.00
58973;BME280;44750;52.040;7.472;2023-02-21T16:09:47;101258.75;;;9.61;0.00
58973;BME280;44750;52.040;7.472;2023-02-21T16:19:58;101248.41;;;9.66;0.00
58973;BME280;44750;52.040;7.472;2023-02-21T16:30:30;101222.91;;;9.59;0.00
58973;BME280;44750;52.040;7.472;2023-02-21T16:35:32;101212.09;;;9.59;0.00
58973;BME280;44750;52.040;7.472;2023-02-21T16:40:35;101210.84;;;9.63;0.00
58973;BME280;44750;52.040;7.472;2023-02-21T16:45:57;101194.69;;;9.51;0.00
58973;BME280;44750;52.040;7.472;2023-02-21T16:51:03;101181.59;;;9.47;0.00
58973;BME280;44750;52.040;7.472;2023-02-21T16:56:05;101184.16;;;9.48;0.00
58973;BME280;44750;52.040;7.472;2023-02-21T17:01:14;101215.25;;;9.64;0.00
58973;BME280;44750;52.040;7.472;2023-02-21T17:06:28;101168.75;;;9.39;0.00
58973;BME280;44750;52.040;7.472;2023-02-21T17:11:29;101150.50;;;9.31;0.00
58973;BME280;44750;52.040;7.472;2023-02-21T17:16:29;101149.78;;;9.29;0.00
58973;BME280;44750;52.040;7.472;2023-02-21T17:21:30;101173.34;;;9.48;0.00
58973;BME280;44750;52.040;7.472;2023-02-21T17:26:31;101163.19;;;9.41;0.00
58973;BME280;44750;52.040;7.472;2023-02-21T17:31:31;101141.28;;;9.34;0.00
58973;BME280;44750;52.040;7.472;2023-02-21T17:36:37;101135.81;;;9.24;0.00
58973;BME280;44750;52.040;7.472;2023-02-21T17:41:49;101139.13;;;9.28;0.00
58973;BME280;44750;52.040;7.472;2023-02-21T17:46:53;101188.47;;;9.61;0.00
58973;BME280;44750;52.040;7.472;2023-02-21T17:51:53;101119.31;;;9.17;0.00
58973;BME280;44750;52.040;7.472;2023-02-21T17:56:58;101118.56;;;9.15;0.00
58973;BME280;44750;52.040;7.472;2023-02-21T18:01:58;101171.75;;;9.46;0.00
58973;BME280;44750;52.040;7.472;2023-02-21T18:06:59;101173.75;;;9.44;0.00
58973;BME280;44750;52.040;7.472;2023-02-21T18:11:59;101176.31;;;9.45;0.00
58973;BME280;44750;52.040;7.472;2023-02-21T18:16:59;101159.66;;;9.40;0.00
58973;BME280;44750;52.040;7.472;2023-02-21T18:22:00;101164.91;;;9.42;0.00
58973;BME280;44750;52.040;7.472;2023-02-21T18:27:00;101170.03;;;9.45;0.00
58973;BME280;44750;52.040;7.472;2023-02-21T18:32:00;101172.19;;;9.41;0.00
58973;BME280;44750;52.040;7.472;2023-02-21T18:37:01;101188.84;;;9.46;0.00
58973;BME280;44750;52.040;7.472;2023-02-21T18:42:01;101162.34;;;9.40;0.00
58973;BME280;44750;52.040;7.472;2023-02-21T18:47:01;101165.34;;;9.37;0.00
58973;BME280;44750;52.040;7.472;2023-02-21T18:52:02;101185.13;;;9.47;0.00
58973;BME280;44750;52.040;7.472;2023-02-21T18:57:02;101187.59;;;9.50;0.00
58973;BME280;44750;52.040;7.472;2023-02-21T19:02:02;101160.50;;;9.41;0.00
58973;BME280;44750;52.040;7.472;2023-02-21T19:07:07;101173.50;;;9.47;0.00
58973;BME280;44750;52.040;7.472;2023-02-21T19:12:07;101140.28;;;9.35;0.00
58973;BME280;44750;52.040;7.472;2023-02-21T19:17:07;101157.41;;;9.45;0.00
58973;BME280;44750;52.040;7.472;2023-02-21T19:22:08;101137.31;;;9.38;0.00
58973;BME280;44750;52.040;7.472;2023-02-21T19:27:08;101127.63;;;9.35;0.00
58973;BME280;44750;52.040;7.472;2023-02-21T19:32:08;101141.44;;;9.42;0.00
58973;BME280;44750;52.040;7.472;2023-02-21T19:37:09;101138.03;;;9.40;0.00
58973;BME280;44750;52.040;7.472;2023-02-21T19:42:09;101127.38;;;9.39;0.00
58973;BME280;44750;52.040;7.472;2023-02-21T19:47:09;101140.06;;;9.48;0.00
58973;BME280;44750;52.040;7.472;2023-02-21T19:52:09;101133.09;;;9.45;0.00
58973;BME280;44750;52.040;7.472;2023-02-21T19:57:10;101119.13;;;9.40;0.00
58973;BME280;44750;52.040;7.472;2023-02-21T20:02:11;101123.25;;;9.44;0.00
58973;BME280;44750;52.040;7.472;2023-02-21T20:07:11;101125.81;;;9.46;0.00
58973;BME280;44750;52.040;7.472;2023-02-21T20:12:14;101119.72;;;9.44;0.00
58973;BME280;44750;52.040;7.472;2023-02-21T20:17:15;101114.19;;;9.45;0.00
58973;BME280;44750;52.040;7.472;2023-02-21T20:22:16;101113.44;;;9.43;0.00
58973;BME280;44750;52.040;7.472;2023-02-21T20:27:16;101098.50;;;9.39;0.00
58973;BME280;44750;52.040;7.472;2023-02-21T20:32:16;101097.78;;;9.37;0.00
58973;BME280;44750;52.040;7.472;2023-02-21T20:37:16;101095.19;;;9.35;0.00
58973;BME280;44750;52.040;7.472;2023-02-21T20:42:17;101083.84;;;9.32;0.00
58973;BME280;44750;52.040;7.472;2023-02-21T20:47:17;101099.47;;;9.38;0.00
58973;BME280;44750;52.040;7.472;2023-02-21T20:52:17;101093.94;;;9.40;0.00
58973;BME280;44750;52.040;7.472;2023-02-21T20:57:23;101086.13;;;9.36;0.00
58973;BME280;44750;52.040;7.472;2023-02-21T21:02:23;101079.88;;;9.36;0.00
58973;BME280;44750;52.040;7.472;2023-02-21T21:07:23;101070.03;;;9.35;0.00
58973;BME280;44750;52.040;7.472;2023-02-21T21:12:24;101071.75;;;9.36;0.00
58973;BME280;44750;52.040;7.472;2023-02-21T21:17:24;101069.75;;;9.38;0.00
58973;BME280;44750;52.040;7.472;2023-02-21T21:22:25;101055.56;;;9.36;0.00
58973;BME280;44750;52.040;7.472;2023-02-21T21:27:26;101056.09;;;9.40;0.00
58973;BME280;44750;52.040;7.472;2023-02-21T21:32:26;101036.19;;;9.31;0.00
58973;BME280;44750;52.040;7.472;2023-02-21T21:37:28;101036.47;;;9.28;0.00
58973;BME280;44750;52.040;7.472;2023-02-21T21:42:28;101023.22;;;9.25;0.00
58973;BME280;44750;52.040;7.472;2023-02-21T21:47:29;101011.25;;;9.17;0.00
58973;BME280;44750;52.040;7.472;2023-02-21T21:52:30;100999.72;;;9.15;0.00
58973;BME280;44750;52.040;7.472;2023-02-21T21:57:31;101018.09;;;9.22;0.00
58973;BME280;44750;52.040;7.472;2023-02-21T22:02:32;100999.47;;;9.18;0.00
58973;BME280;44750;52.040;7.472;2023-02-21T22:07:32;100991.06;;;9.12;0.00
58973;BME280;44750;52.040;7.472;2023-02-21T22:12:32;101003.16;;;9.17;0.00
58973;BME280;44750;52.040;7.472;2023-02-21T22:17:32;100998.75;;;9.16;0.00
58973;BME280;44750;52.040;7.472;2023-02-21T22:22:32;100989.50;;;9.09;0.00
58973;BME280;44750;52.040;7.472;2023-02-21T22:27:33;100984.22;;;9.08;0.00
58973;BME280;44750;52.040;7.472;2023-02-21T22:32:34;100983.34;;;9.07;0.00
58973;BME280;44750;52.040;7.472;2023-02-21T22:37:34;100971.56;;;9.08;0.00
58973;BME280;44750;52.040;7.472;2023-02-21T22:42:34;100976.84;;;9.10;0.00
58973;BME280;44750;52.040;7.472;2023-02-21T22:47:34;100957.78;;;9.01;0.00
58973;BME280;44750;52.040;7.472;2023-02-21T22:52:35;100957.19;;;8.98;0.00
58973;BME280;44750;52.040;7.472;2023-02-21T22:57:35;100955.59;;;8.95;0.00
58973;BME280;44750;52.040;7.472;2023-02-21T23:02:35;100965.88;;;9.01;0.00
58973;BME280;44750;52.040;7.472;2023-02-21T23:07:35;100954.47;;;8.98;0.00
58973;BME280;44750;52.040;7.472;2023-02-21T23:12:35;100957.00;;;8.90;0.00
58973;BME280;44750;52.040;7.472;2023-02-21T23:17:36;100950.50;;;8.92;0.00
58973;BME280;44750;52.040;7.472;2023-02-21T23:22:37;100961.44;;;8.91;0.00
58973;BME280;44750;52.040;7.472;2023-02-21T23:27:37;100971.09;;;8.93;0.00
58973;BME280;44750;52.040;7.472;2023-02-21T23:32:37;100988.59;;;8.99;0.00
58973;BME280;44750;52.040;7.472;2023-02-21T23:37:37;100989.72;;;8.96;0.00
58973;BME280;44750;52.040;7.472;2023-02-21T23:42:37;100992.28;;;8.98;0.00
58973;BME280;44750;52.040;7.472;2023-02-21T23:47:39;101001.94;;;9.00;0.00
58973;BME280;44750;52.040;7.472;2023-02-21T23:52:39;101008.19;;;9.01;0.00
58973;BME280;44750;52.040;7.472;2023-02-21T23:57:42;101009.22;;;9.00;0.00
